sensor_id;sensor_type;location;lat;lon;timestamp;pressure;altitude;pressure_sealevel;temperature;humidity
67840;BME280;54636;51.684;5.142;2024-01-11T00:02:20;103237.00;;;-4.99;94.46
67840;BME280;54636;51.684;5.142;2024-01-11T00:04:45;103240.28;;;-5.02;95.15
67840;BME280;54636;51.684;5.142;2024-01-11T00:07:10;103241.38;;;-5.03;95.37
67840;BME280;54636;51.684;5.142;2024-01-11T00:09:41;103246.34;;;-5.02;96.14
67840;BME280;54636;51.684;5.142;2024-01-11T00:12:07;103251.34;;;-5.00;96.29
67840;BME280;54636;51.684;5.142;2024-01-11T00:14:32;103254.78;;;-5.00;96.71
67840;BME280;54636;51.684;5.142;2024-01-11T00:16:57;103251.50;;;-4.97;96.95
67840;BME280;54636;51.684;5.142;2024-01-11T00:19:23;103249.63;;;-4.96;96.93
67840;BME280;54636;51.684;5.142;2024-01-11T00:21:48;103255.38;;;-4.94;97.62
67840;BME280;54636;51.684;5.142;2024-01-11T00:24:13;103245.56;;;-4.93;96.70
67840;BME280;54636;51.684;5.142;2024-01-11T00:26:39;103247.91;;;-4.92;96.43
67840;BME280;54636;51.684;5.142;2024-01-11T00:29:04;103240.25;;;-4.93;97.39
67840;BME280;54636;51.684;5.142;2024-01-11T00:31:30;103245.25;;;-4.92;97.63
67840;BME280;54636;51.684;5.142;2024-01-11T00:33:55;103232.16;;;-4.88;97.20
67840;BME280;54636;51.684;5.142;2024-01-11T00:36:20;103233.09;;;-4.93;96.94
67840;BME280;54636;51.684;5.142;2024-01-11T00:38:46;103238.25;;;-4.97;96.86
67840;BME280;54636;51.684;5.142;2024-01-11T00:41:11;103247.13;;;-5.01;97.02
67840;BME280;54636;51.684;5.142;2024-01-11T00:43:37;103239.03;;;-5.05;97.48
67840;BME280;54636;51.684;5.142;2024-01-11T00:46:02;103244.31;;;-5.05;96.98
67840;BME280;54636;51.684;5.142;2024-01-11T00:48:27;103246.03;;;-5.09;97.27
67840;BME280;54636;51.684;5.142;2024-01-11T00:50:53;103244.94;;;-5.08;97.85
67840;BME280;54636;51.684;5.142;2024-01-11T00:53:18;103238.09;;;-5.09;98.49
67840;BME280;54636;51.684;5.142;2024-01-11T00:55:43;103229.38;;;-5.09;98.39
67840;BME280;54636;51.684;5.142;2024-01-11T00:58:09;103236.06;;;-5.03;98.54
67840;BME280;54636;51.684;5.142;2024-01-11T01:00:34;103232.94;;;-4.97;97.25
67840;BME280;54636;51.684;5.142;2024-01-11T01:02:59;103244.00;;;-4.94;97.48
67840;BME280;54636;51.684;5.142;2024-01-11T01:05:25;103249.31;;;-4.94;97.32
67840;BME280;54636;51.684;5.142;2024-01-11T01:07:50;103252.59;;;-4.98;97.56
67840;BME280;54636;51.684;5.142;2024-01-11T01:10:15;103249.16;;;-4.98;97.80
67840;BME280;54636;51.684;5.142;2024-01-11T01:12:41;103256.63;;;-5.00;97.67
67840;BME280;54636;51.684;5.142;2024-01-11T01:15:07;103256.03;;;-5.06;98.36
67840;BME280;54636;51.684;5.142;2024-01-11T01:17:32;103261.63;;;-4.99;97.94
67840;BME280;54636;51.684;5.142;2024-01-11T01:19:57;103257.88;;;-4.98;97.83
67840;BME280;54636;51.684;5.142;2024-01-11T01:22:23;103258.34;;;-5.04;98.74
67840;BME280;54636;51.684;5.142;2024-01-11T01:24:48;103255.41;;;-5.03;98.61
67840;BME280;54636;51.684;5.142;2024-01-11T01:27:13;103261.31;;;-4.97;99.32
67840;BME280;54636;51.684;5.142;2024-01-11T01:29:39;103262.88;;;-4.96;98.61
67840;BME280;54636;51.684;5.142;2024-01-11T01:32:04;103263.03;;;-5.01;99.11
67840;BME280;54636;51.684;5.142;2024-01-11T01:34:30;103273.47;;;-5.05;99.57
67840;BME280;54636;51.684;5.142;2024-01-11T01:36:55;103274.56;;;-5.06;99.71
67840;BME280;54636;51.684;5.142;2024-01-11T01:39:21;103276.44;;;-5.06;100.00
67840;BME280;54636;51.684;5.142;2024-01-11T01:41:46;103276.59;;;-5.11;100.00
67840;BME280;54636;51.684;5.142;2024-01-11T01:44:11;103284.25;;;-5.10;100.00
67840;BME280;54636;51.684;5.142;2024-01-11T01:46:37;103285.47;;;-5.16;100.00
67840;BME280;54636;51.684;5.142;2024-01-11T01:49:03;103287.97;;;-5.19;100.00
67840;BME280;54636;51.684;5.142;2024-01-11T01:51:30;103294.22;;;-5.24;100.00
67840;BME280;54636;51.684;5.142;2024-01-11T01:53:57;103288.47;;;-5.26;100.00
67840;BME280;54636;51.684;5.142;2024-01-11T01:56:22;103290.47;;;-5.32;100.00
67840;BME280;54636;51.684;5.142;2024-01-11T01:58:50;103290.03;;;-5.34;100.00
67840;BME280;54636;51.684;5.142;2024-01-11T02:01:17;103295.47;;;-5.39;100.00
67840;BME280;54636;51.684;5.142;2024-01-11T02:03:45;103284.06;;;-5.48;100.00
67840;BME280;54636;51.684;5.142;2024-01-11T02:06:13;103286.41;;;-5.55;100.00
67840;BME280;54636;51.684;5.142;2024-01-11T02:08:40;103280.63;;;-5.66;100.00
67840;BME280;54636;51.684;5.142;2024-01-11T02:11:07;103277.81;;;-5.69;100.00
67840;BME280;54636;51.684;5.142;2024-01-11T02:13:33;103289.00;;;-5.72;100.00
67840;BME280;54636;51.684;5.142;2024-01-11T02:15:58;103290.72;;;-5.76;100.00
67840;BME280;54636;51.684;5.142;2024-01-11T02:18:24;103288.97;;;-5.81;100.00
67840;BME280;54636;51.684;5.142;2024-01-11T02:20:49;103287.41;;;-5.82;100.00
67840;BME280;54636;51.684;5.142;2024-01-11T02:23:17;103288.50;;;-5.83;100.00
67840;BME280;54636;51.684;5.142;2024-01-11T02:25:43;103298.66;;;-5.85;100.00
67840;BME280;54636;51.684;5.142;2024-01-11T02:28:08;103292.28;;;-5.92;100.00
67840;BME280;54636;51.684;5.142;2024-01-11T02:30:34;103296.47;;;-5.91;100.00
67840;BME280;54636;51.684;5.142;2024-01-11T02:33:01;103293.66;;;-5.95;100.00
67840;BME280;54636;51.684;5.142;2024-01-11T02:35:27;103287.91;;;-5.97;100.00
67840;BME280;54636;51.684;5.142;2024-01-11T02:37:53;103283.53;;;-6.02;100.00
67840;BME280;54636;51.684;5.142;2024-01-11T02:40:20;103290.84;;;-5.99;100.00
67840;BME280;54636;51.684;5.142;2024-01-11T02:42:45;103285.06;;;-6.01;100.00
67840;BME280;54636;51.684;5.142;2024-01-11T02:45:11;103285.88;;;-6.00;100.00
67840;BME280;54636;51.684;5.142;2024-01-11T02:47:40;103288.81;;;-6.02;100.00
67840;BME280;54636;51.684;5.142;2024-01-11T02:50:06;103283.66;;;-6.07;100.00
67840;BME280;54636;51.684;5.142;2024-01-11T02:52:33;103298.63;;;-6.02;100.00
67840;BME280;54636;51.684;5.142;2024-01-11T02:54:58;103299.22;;;-6.05;100.00
67840;BME280;54636;51.684;5.142;2024-01-11T02:57:23;103296.88;;;-6.07;100.00
67840;BME280;54636;51.684;5.142;2024-01-11T02:59:49;103298.13;;;-6.04;100.00
67840;BME280;54636;51.684;5.142;2024-01-11T03:02:14;103297.66;;;-6.06;100.00
67840;BME280;54636;51.684;5.142;2024-01-11T03:04:40;103292.50;;;-6.11;100.00
67840;BME280;54636;51.684;5.142;2024-01-11T03:07:05;103292.81;;;-6.13;100.00
67840;BME280;54636;51.684;5.142;2024-01-11T03:09:30;103295.47;;;-6.13;100.00
67840;BME280;54636;51.684;5.142;2024-01-11T03:11:56;103300.28;;;-6.15;100.00
67840;BME280;54636;51.684;5.142;2024-01-11T03:14:21;103297.44;;;-6.18;100.00
67840;BME280;54636;51.684;5.142;2024-01-11T03:16:47;103295.72;;;-6.23;100.00
67840;BME280;54636;51.684;5.142;2024-01-11T03:19:12;103306.44;;;-6.28;100.00
67840;BME280;54636;51.684;5.142;2024-01-11T03:21:43;103310.81;;;-6.23;100.00
67840;BME280;54636;51.684;5.142;2024-01-11T03:24:08;103303.59;;;-6.32;100.00
67840;BME280;54636;51.684;5.142;2024-01-11T03:26:34;103313.28;;;-6.27;100.00
67840;BME280;54636;51.684;5.142;2024-01-11T03:28:59;103310.16;;;-6.29;100.00
67840;BME280;54636;51.684;5.142;2024-01-11T03:31:24;103305.94;;;-6.30;100.00
67840;BME280;54636;51.684;5.142;2024-01-11T03:33:50;103294.13;;;-6.33;100.00
67840;BME280;54636;51.684;5.142;2024-01-11T03:36:15;103289.00;;;-6.29;100.00
67840;BME280;54636;51.684;5.142;2024-01-11T03:38:41;103288.34;;;-6.35;100.00
67840;BME280;54636;51.684;5.142;2024-01-11T03:41:09;103278.19;;;-6.41;100.00
67840;BME280;54636;51.684;5.142;2024-01-11T03:43:36;103284.88;;;-6.44;100.00
67840;BME280;54636;51.684;5.142;2024-01-11T03:46:02;103293.59;;;-6.43;100.00
67840;BME280;54636;51.684;5.142;2024-01-11T03:48:28;103295.44;;;-6.44;100.00
67840;BME280;54636;51.684;5.142;2024-01-11T03:50:53;103292.63;;;-6.47;100.00
67840;BME280;54636;51.684;5.142;2024-01-11T03:53:18;103294.94;;;-6.54;100.00
67840;BME280;54636;51.684;5.142;2024-01-11T03:55:44;103294.91;;;-6.63;100.00
67840;BME280;54636;51.684;5.142;2024-01-11T03:58:09;103281.97;;;-6.65;100.00
67840;BME280;54636;51.684;5.142;2024-01-11T04:00:35;103292.38;;;-6.68;100.00
67840;BME280;54636;51.684;5.142;2024-01-11T04:03:00;103280.19;;;-6.78;100.00
67840;BME280;54636;51.684;5.142;2024-01-11T04:05:27;103295.91;;;-6.73;100.00
67840;BME280;54636;51.684;5.142;2024-01-11T04:07:52;103308.84;;;-6.71;100.00
67840;BME280;54636;51.684;5.142;2024-01-11T04:10:18;103311.00;;;-6.73;100.00
67840;BME280;54636;51.684;5.142;2024-01-11T04:12:43;103322.16;;;-6.76;100.00
67840;BME280;54636;51.684;5.142;2024-01-11T04:15:11;103322.16;;;-6.76;100.00
67840;BME280;54636;51.684;5.142;2024-01-11T04:17:38;103313.22;;;-6.89;100.00
67840;BME280;54636;51.684;5.142;2024-01-11T04:20:04;103336.47;;;-6.77;100.00
67840;BME280;54636;51.684;5.142;2024-01-11T04:22:30;103315.44;;;-6.82;100.00
67840;BME280;54636;51.684;5.142;2024-01-11T04:24:55;103329.63;;;-6.78;100.00
67840;BME280;54636;51.684;5.142;2024-01-11T04:27:21;103332.75;;;-6.76;100.00
67840;BME280;54636;51.684;5.142;2024-01-11T04:29:46;103322.28;;;-6.81;100.00
67840;BME280;54636;51.684;5.142;2024-01-11T04:32:11;103327.09;;;-6.83;100.00
67840;BME280;54636;51.684;5.142;2024-01-11T04:34:37;103337.66;;;-6.83;100.00
67840;BME280;54636;51.684;5.142;2024-01-11T04:37:02;103335.13;;;-6.88;100.00
67840;BME280;54636;51.684;5.142;2024-01-11T04:39:28;103345.00;;;-6.80;100.00
67840;BME280;54636;51.684;5.142;2024-01-11T04:41:53;103333.94;;;-6.82;100.00
67840;BME280;54636;51.684;5.142;2024-01-11T04:44:19;103323.66;;;-6.84;100.00
67840;BME280;54636;51.684;5.142;2024-01-11T04:46:44;103323.19;;;-6.86;100.00
67840;BME280;54636;51.684;5.142;2024-01-11T04:49:09;103325.63;;;-6.89;100.00
67840;BME280;54636;51.684;5.142;2024-01-11T04:51:35;103333.09;;;-6.91;100.00
67840;BME280;54636;51.684;5.142;2024-01-11T04:54:00;103322.16;;;-6.99;100.00
67840;BME280;54636;51.684;5.142;2024-01-11T04:56:26;103337.97;;;-6.85;100.00
67840;BME280;54636;51.684;5.142;2024-01-11T04:58:51;103333.56;;;-6.89;100.00
67840;BME280;54636;51.684;5.142;2024-01-11T05:01:17;103338.25;;;-6.86;100.00
67840;BME280;54636;51.684;5.142;2024-01-11T05:03:44;103353.81;;;-6.85;100.00
67840;BME280;54636;51.684;5.142;2024-01-11T05:06:17;103354.69;;;-6.89;100.00
67840;BME280;54636;51.684;5.142;2024-01-11T05:08:46;103358.72;;;-6.92;100.00
67840;BME280;54636;51.684;5.142;2024-01-11T05:11:18;103356.97;;;-6.97;100.00
67840;BME280;54636;51.684;5.142;2024-01-11T05:13:44;103357.56;;;-7.00;100.00
67840;BME280;54636;51.684;5.142;2024-01-11T05:16:24;103368.31;;;-6.96;100.00
67840;BME280;54636;51.684;5.142;2024-01-11T05:18:50;103375.56;;;-7.02;100.00
67840;BME280;54636;51.684;5.142;2024-01-11T05:21:16;103368.25;;;-7.05;100.00
67840;BME280;54636;51.684;5.142;2024-01-11T05:23:41;103367.47;;;-7.05;100.00
67840;BME280;54636;51.684;5.142;2024-01-11T05:26:08;103368.66;;;-7.11;100.00
67840;BME280;54636;51.684;5.142;2024-01-11T05:28:34;103367.22;;;-7.17;100.00
67840;BME280;54636;51.684;5.142;2024-01-11T05:30:59;103378.97;;;-7.23;100.00
67840;BME280;54636;51.684;5.142;2024-01-11T05:33:24;103383.28;;;-7.27;100.00
67840;BME280;54636;51.684;5.142;2024-01-11T05:35:50;103383.06;;;-7.31;100.00
67840;BME280;54636;51.684;5.142;2024-01-11T05:38:15;103390.13;;;-7.26;100.00
67840;BME280;54636;51.684;5.142;2024-01-11T05:40:41;103396.19;;;-7.26;100.00
67840;BME280;54636;51.684;5.142;2024-01-11T05:43:06;103387.28;;;-7.30;100.00
67840;BME280;54636;51.684;5.142;2024-01-11T05:45:31;103381.22;;;-7.31;100.00
67840;BME280;54636;51.684;5.142;2024-01-11T05:47:59;103368.78;;;-7.30;100.00
67840;BME280;54636;51.684;5.142;2024-01-11T05:50:24;103353.34;;;-7.37;100.00
67840;BME280;54636;51.684;5.142;2024-01-11T05:52:50;103362.44;;;-7.43;100.00
67840;BME280;54636;51.684;5.142;2024-01-11T05:55:16;103367.81;;;-7.34;100.00
67840;BME280;54636;51.684;5.142;2024-01-11T05:57:41;103362.84;;;-7.36;100.00
67840;BME280;54636;51.684;5.142;2024-01-11T06:00:07;103382.88;;;-7.35;100.00
67840;BME280;54636;51.684;5.142;2024-01-11T06:02:32;103383.16;;;-7.36;100.00
67840;BME280;54636;51.684;5.142;2024-01-11T06:04:58;103393.72;;;-7.22;100.00
67840;BME280;54636;51.684;5.142;2024-01-11T06:07:23;103383.16;;;-7.22;100.00
67840;BME280;54636;51.684;5.142;2024-01-11T06:09:48;103403.69;;;-7.19;100.00
67840;BME280;54636;51.684;5.142;2024-01-11T06:12:14;103396.97;;;-7.25;100.00
67840;BME280;54636;51.684;5.142;2024-01-11T06:14:39;103395.09;;;-7.25;100.00
67840;BME280;54636;51.684;5.142;2024-01-11T06:17:05;103385.91;;;-7.27;100.00
67840;BME280;54636;51.684;5.142;2024-01-11T06:19:30;103372.22;;;-7.43;100.00
67840;BME280;54636;51.684;5.142;2024-01-11T06:21:55;103389.03;;;-7.39;100.00
67840;BME280;54636;51.684;5.142;2024-01-11T06:24:21;103394.41;;;-7.44;100.00
67840;BME280;54636;51.684;5.142;2024-01-11T06:26:46;103411.34;;;-7.45;100.00
67840;BME280;54636;51.684;5.142;2024-01-11T06:29:11;103396.47;;;-7.41;100.00
67840;BME280;54636;51.684;5.142;2024-01-11T06:31:37;103389.25;;;-7.49;100.00
67840;BME280;54636;51.684;5.142;2024-01-11T06:34:02;103389.63;;;-7.56;100.00
67840;BME280;54636;51.684;5.142;2024-01-11T06:36:28;103377.41;;;-7.66;100.00
67840;BME280;54636;51.684;5.142;2024-01-11T06:38:53;103397.03;;;-7.72;100.00
67840;BME280;54636;51.684;5.142;2024-01-11T06:41:19;103396.16;;;-7.67;100.00
67840;BME280;54636;51.684;5.142;2024-01-11T06:43:44;103400.84;;;-7.64;100.00
67840;BME280;54636;51.684;5.142;2024-01-11T06:46:09;103403.00;;;-7.66;100.00
67840;BME280;54636;51.684;5.142;2024-01-11T06:48:35;103412.19;;;-7.64;100.00
67840;BME280;54636;51.684;5.142;2024-01-11T06:51:01;103404.09;;;-7.67;100.00
67840;BME280;54636;51.684;5.142;2024-01-11T06:53:26;103388.44;;;-7.77;100.00
67840;BME280;54636;51.684;5.142;2024-01-11T06:55:52;103389.34;;;-7.82;100.00
67840;BME280;54636;51.684;5.142;2024-01-11T06:58:20;103420.31;;;-7.60;100.00
67840;BME280;54636;51.684;5.142;2024-01-11T07:00:48;103415.63;;;-7.63;100.00
67840;BME280;54636;51.684;5.142;2024-01-11T07:03:14;103425.78;;;-7.56;100.00
67840;BME280;54636;51.684;5.142;2024-01-11T07:05:40;103432.84;;;-7.52;100.00
67840;BME280;54636;51.684;5.142;2024-01-11T07:08:05;103441.44;;;-7.46;100.00
67840;BME280;54636;51.684;5.142;2024-01-11T07:10:30;103441.16;;;-7.45;100.00
67840;BME280;54636;51.684;5.142;2024-01-11T07:12:57;103461.69;;;-7.42;100.00
67840;BME280;54636;51.684;5.142;2024-01-11T07:15:22;103453.47;;;-7.40;100.00
67840;BME280;54636;51.684;5.142;2024-01-11T07:17:49;103399.09;;;-7.69;100.00
67840;BME280;54636;51.684;5.142;2024-01-11T07:20:14;103448.09;;;-7.35;100.00
67840;BME280;54636;51.684;5.142;2024-01-11T07:22:42;103438.91;;;-7.38;100.00
67840;BME280;54636;51.684;5.142;2024-01-11T07:25:07;103443.41;;;-7.38;100.00
67840;BME280;54636;51.684;5.142;2024-01-11T07:27:33;103460.22;;;-7.34;100.00
67840;BME280;54636;51.684;5.142;2024-01-11T07:29:58;103448.31;;;-7.32;100.00
67840;BME280;54636;51.684;5.142;2024-01-11T07:32:23;103449.38;;;-7.33;100.00
67840;BME280;54636;51.684;5.142;2024-01-11T07:34:49;103446.25;;;-7.35;100.00
67840;BME280;54636;51.684;5.142;2024-01-11T07:37:14;103446.75;;;-7.33;100.00
67840;BME280;54636;51.684;5.142;2024-01-11T07:39:39;103434.13;;;-7.36;100.00
67840;BME280;54636;51.684;5.142;2024-01-11T07:42:06;103444.38;;;-7.34;100.00
67840;BME280;54636;51.684;5.142;2024-01-11T07:44:31;103441.84;;;-7.39;100.00
67840;BME280;54636;51.684;5.142;2024-01-11T07:46:57;103444.78;;;-7.41;100.00
67840;BME280;54636;51.684;5.142;2024-01-11T07:49:22;103442.63;;;-7.39;100.00
67840;BME280;54636;51.684;5.142;2024-01-11T07:51:48;103448.41;;;-7.37;100.00
67840;BME280;54636;51.684;5.142;2024-01-11T07:54:14;103448.97;;;-7.40;100.00
67840;BME280;54636;51.684;5.142;2024-01-11T07:56:39;103438.91;;;-7.38;100.00
67840;BME280;54636;51.684;5.142;2024-01-11T07:59:05;103451.81;;;-7.36;100.00
67840;BME280;54636;51.684;5.142;2024-01-11T08:01:30;103441.06;;;-7.40;100.00
67840;BME280;54636;51.684;5.142;2024-01-11T08:03:56;103447.81;;;-7.34;100.00
67840;BME280;54636;51.684;5.142;2024-01-11T08:06:21;103426.19;;;-7.36;100.00
67840;BME280;54636;51.684;5.142;2024-01-11T08:08:46;103424.34;;;-7.35;100.00
67840;BME280;54636;51.684;5.142;2024-01-11T08:11:17;103425.31;;;-7.31;100.00
67840;BME280;54636;51.684;5.142;2024-01-11T08:13:42;103430.31;;;-7.29;100.00
67840;BME280;54636;51.684;5.142;2024-01-11T08:16:08;103424.84;;;-7.33;100.00
67840;BME280;54636;51.684;5.142;2024-01-11T08:18:35;103431.78;;;-7.23;100.00
67840;BME280;54636;51.684;5.142;2024-01-11T08:21:00;103421.91;;;-7.18;100.00
67840;BME280;54636;51.684;5.142;2024-01-11T08:23:25;103432.47;;;-7.18;100.00
67840;BME280;54636;51.684;5.142;2024-01-11T08:25:51;103405.88;;;-7.35;100.00
67840;BME280;54636;51.684;5.142;2024-01-11T08:28:18;103435.88;;;-7.17;100.00
67840;BME280;54636;51.684;5.142;2024-01-11T08:30:44;103429.97;;;-7.14;100.00
67840;BME280;54636;51.684;5.142;2024-01-11T08:33:09;103445.06;;;-7.15;100.00
67840;BME280;54636;51.684;5.142;2024-01-11T08:35:34;103437.50;;;-7.08;100.00
67840;BME280;54636;51.684;5.142;2024-01-11T08:38:00;103441.91;;;-7.03;100.00
67840;BME280;54636;51.684;5.142;2024-01-11T08:40:26;103443.84;;;-6.95;100.00
67840;BME280;54636;51.684;5.142;2024-01-11T08:42:51;103431.13;;;-6.93;100.00
67840;BME280;54636;51.684;5.142;2024-01-11T08:45:17;103441.00;;;-6.85;100.00
67840;BME280;54636;51.684;5.142;2024-01-11T08:47:47;103438.75;;;-6.78;100.00
67840;BME280;54636;51.684;5.142;2024-01-11T08:50:14;103447.06;;;-6.71;100.00
67840;BME280;54636;51.684;5.142;2024-01-11T08:52:40;103450.56;;;-6.61;100.00
67840;BME280;54636;51.684;5.142;2024-01-11T08:55:06;103458.88;;;-6.54;100.00
67840;BME280;54636;51.684;5.142;2024-01-11T08:57:31;103475.25;;;-6.44;100.00
67840;BME280;54636;51.684;5.142;2024-01-11T08:59:57;103469.25;;;-6.36;100.00
67840;BME280;54636;51.684;5.142;2024-01-11T09:02:22;103464.16;;;-6.32;100.00
67840;BME280;54636;51.684;5.142;2024-01-11T09:04:48;103472.63;;;-6.21;100.00
67840;BME280;54636;51.684;5.142;2024-01-11T09:07:14;103463.31;;;-6.19;100.00
67840;BME280;54636;51.684;5.142;2024-01-11T09:09:40;103472.41;;;-6.11;100.00
67840;BME280;54636;51.684;5.142;2024-01-11T09:12:06;103477.75;;;-6.03;100.00
67840;BME280;54636;51.684;5.142;2024-01-11T09:14:32;103464.53;;;-6.03;100.00
67840;BME280;54636;51.684;5.142;2024-01-11T09:16:57;103473.91;;;-5.96;100.00
67840;BME280;54636;51.684;5.142;2024-01-11T09:19:22;103468.91;;;-5.98;100.00
67840;BME280;54636;51.684;5.142;2024-01-11T09:21:48;103476.28;;;-5.86;100.00
67840;BME280;54636;51.684;5.142;2024-01-11T09:24:14;103485.81;;;-5.77;100.00
67840;BME280;54636;51.684;5.142;2024-01-11T09:26:39;103497.22;;;-5.68;100.00
67840;BME280;54636;51.684;5.142;2024-01-11T09:29:05;103489.50;;;-5.55;100.00
67840;BME280;54636;51.684;5.142;2024-01-11T09:31:30;103495.94;;;-5.48;100.00
67840;BME280;54636;51.684;5.142;2024-01-11T09:33:55;103508.13;;;-5.38;100.00
67840;BME280;54636;51.684;5.142;2024-01-11T09:36:22;103513.00;;;-5.32;100.00
67840;BME280;54636;51.684;5.142;2024-01-11T09:38:48;103522.25;;;-5.20;100.00
67840;BME280;54636;51.684;5.142;2024-01-11T09:41:14;103519.91;;;-5.22;100.00
67840;BME280;54636;51.684;5.142;2024-01-11T09:43:43;103514.44;;;-5.17;100.00
67840;BME280;54636;51.684;5.142;2024-01-11T09:46:11;103538.19;;;-5.03;100.00
67840;BME280;54636;51.684;5.142;2024-01-11T09:48:38;103531.81;;;-5.02;100.00
67840;BME280;54636;51.684;5.142;2024-01-11T09:51:08;103532.91;;;-4.94;100.00
67840;BME280;54636;51.684;5.142;2024-01-11T09:53:35;103537.47;;;-4.86;100.00
67840;BME280;54636;51.684;5.142;2024-01-11T09:56:07;103541.53;;;-4.80;100.00
67840;BME280;54636;51.684;5.142;2024-01-11T09:58:34;103550.91;;;-4.74;100.00
67840;BME280;54636;51.684;5.142;2024-01-11T10:01:02;103532.22;;;-4.69;100.00
67840;BME280;54636;51.684;5.142;2024-01-11T10:03:28;103549.72;;;-4.59;100.00
67840;BME280;54636;51.684;5.142;2024-01-11T10:05:57;103535.97;;;-4.53;100.00
67840;BME280;54636;51.684;5.142;2024-01-11T10:08:23;103540.66;;;-4.41;100.00
67840;BME280;54636;51.684;5.142;2024-01-11T10:10:49;103541.00;;;-4.34;100.00
67840;BME280;54636;51.684;5.142;2024-01-11T10:13:15;103537.09;;;-4.28;100.00
67840;BME280;54636;51.684;5.142;2024-01-11T10:15:42;103538.81;;;-4.23;100.00
67840;BME280;54636;51.684;5.142;2024-01-11T10:18:07;103546.00;;;-4.15;100.00
67840;BME280;54636;51.684;5.142;2024-01-11T10:20:32;103546.78;;;-4.06;100.00
67840;BME280;54636;51.684;5.142;2024-01-11T10:22:58;103545.53;;;-4.00;100.00
67840;BME280;54636;51.684;5.142;2024-01-11T10:25:24;103550.22;;;-3.97;100.00
67840;BME280;54636;51.684;5.142;2024-01-11T10:27:50;103534.59;;;-3.90;100.00
67840;BME280;54636;51.684;5.142;2024-01-11T10:30:16;103553.31;;;-3.78;100.00
67840;BME280;54636;51.684;5.142;2024-01-11T10:32:43;103554.84;;;-3.68;100.00
67840;BME280;54636;51.684;5.142;2024-01-11T10:35:08;103549.06;;;-3.61;100.00
67840;BME280;54636;51.684;5.142;2024-01-11T10:37:36;103546.72;;;-3.54;100.00
67840;BME280;54636;51.684;5.142;2024-01-11T10:40:04;103556.53;;;-3.46;100.00
67840;BME280;54636;51.684;5.142;2024-01-11T10:42:41;103550.91;;;-3.45;100.00
67840;BME280;54636;51.684;5.142;2024-01-11T10:45:10;103537.75;;;-3.33;100.00
67840;BME280;54636;51.684;5.142;2024-01-11T10:47:47;103541.97;;;-3.32;100.00
67840;BME280;54636;51.684;5.142;2024-01-11T10:50:16;103546.78;;;-3.25;100.00
67840;BME280;54636;51.684;5.142;2024-01-11T10:55:24;103529.06;;;-3.21;100.00
67840;BME280;54636;51.684;5.142;2024-01-11T10:57:51;103538.09;;;-3.05;97.77
67840;BME280;54636;51.684;5.142;2024-01-11T11:00:17;103537.00;;;-3.04;99.03
67840;BME280;54636;51.684;5.142;2024-01-11T11:02:44;103551.81;;;-2.94;99.44
67840;BME280;54636;51.684;5.142;2024-01-11T11:05:12;103534.78;;;-3.02;99.90
67840;BME280;54636;51.684;5.142;2024-01-11T11:07:39;103554.88;;;-2.83;98.42
67840;BME280;54636;51.684;5.142;2024-01-11T11:10:06;103564.88;;;-2.80;97.15
67840;BME280;54636;51.684;5.142;2024-01-11T11:12:33;103562.19;;;-2.72;96.10
67840;BME280;54636;51.684;5.142;2024-01-11T11:15:01;103559.66;;;-2.68;96.95
67840;BME280;54636;51.684;5.142;2024-01-11T11:17:27;103574.81;;;-2.60;95.44
67840;BME280;54636;51.684;5.142;2024-01-11T11:19:54;103575.03;;;-2.53;95.16
67840;BME280;54636;51.684;5.142;2024-01-11T11:22:19;103581.78;;;-2.55;95.15
67840;BME280;54636;51.684;5.142;2024-01-11T11:24:45;103557.47;;;-2.66;94.24
67840;BME280;54636;51.684;5.142;2024-01-11T11:27:14;103584.66;;;-2.40;95.44
67840;BME280;54636;51.684;5.142;2024-01-11T11:29:40;103589.34;;;-2.37;96.70
67840;BME280;54636;51.684;5.142;2024-01-11T11:32:05;103588.38;;;-2.32;97.02
67840;BME280;54636;51.684;5.142;2024-01-11T11:34:41;103590.41;;;-2.29;98.33
67840;BME280;54636;51.684;5.142;2024-01-11T11:37:08;103588.66;;;-2.25;98.97
67840;BME280;54636;51.684;5.142;2024-01-11T11:39:34;103577.81;;;-2.20;100.00
67840;BME280;54636;51.684;5.142;2024-01-11T11:41:59;103579.31;;;-2.10;100.00
67840;BME280;54636;51.684;5.142;2024-01-11T11:44:26;103595.53;;;-2.03;100.00
67840;BME280;54636;51.684;5.142;2024-01-11T11:46:52;103599.44;;;-2.01;100.00
67840;BME280;54636;51.684;5.142;2024-01-11T11:49:17;103597.38;;;-1.95;100.00
67840;BME280;54636;51.684;5.142;2024-01-11T11:51:43;103596.94;;;-1.85;100.00
67840;BME280;54636;51.684;5.142;2024-01-11T11:54:09;103599.53;;;-1.76;100.00
67840;BME280;54636;51.684;5.142;2024-01-11T11:56:35;103593.56;;;-1.73;100.00
67840;BME280;54636;51.684;5.142;2024-01-11T11:59:02;103608.81;;;-1.61;100.00
67840;BME280;54636;51.684;5.142;2024-01-11T12:01:28;103597.63;;;-1.55;100.00
67840;BME280;54636;51.684;5.142;2024-01-11T12:03:54;103589.00;;;-1.40;100.00
67840;BME280;54636;51.684;5.142;2024-01-11T12:06:21;103587.59;;;-1.13;100.00
67840;BME280;54636;51.684;5.142;2024-01-11T12:08:52;103586.59;;;-0.96;100.00
67840;BME280;54636;51.684;5.142;2024-01-11T12:11:19;103564.69;;;-1.02;100.00
67840;BME280;54636;51.684;5.142;2024-01-11T12:13:47;103565.03;;;-1.03;100.00
67840;BME280;54636;51.684;5.142;2024-01-11T12:16:12;103569.72;;;-1.00;100.00
67840;BME280;54636;51.684;5.142;2024-01-11T12:18:38;103559.38;;;-1.02;100.00
67840;BME280;54636;51.684;5.142;2024-01-11T12:21:04;103562.25;;;-1.07;100.00
67840;BME280;54636;51.684;5.142;2024-01-11T12:23:30;103551.91;;;-1.20;100.00
67840;BME280;54636;51.684;5.142;2024-01-11T12:25:57;103555.34;;;-1.20;100.00
67840;BME280;54636;51.684;5.142;2024-01-11T12:28:23;103555.34;;;-1.20;100.00
67840;BME280;54636;51.684;5.142;2024-01-11T12:30:49;103554.56;;;-1.20;100.00
67840;BME280;54636;51.684;5.142;2024-01-11T12:33:15;103567.25;;;-1.17;100.00
67840;BME280;54636;51.684;5.142;2024-01-11T12:35:40;103554.56;;;-1.20;100.00
67840;BME280;54636;51.684;5.142;2024-01-11T12:38:06;103552.81;;;-1.16;100.00
67840;BME280;54636;51.684;5.142;2024-01-11T12:40:32;103542.69;;;-1.23;100.00